sensor_id;sensor_type;location;lat;lon;timestamp;P1;durP1;ratioP1;P2;durP2;ratioP2
15820;SDS011;8011;51.650;7.240;2022-09-12T03:00:21;12.67;;;11.27;;
15820;SDS011;8011;51.650;7.240;2022-09-12T03:05:54;14.63;;;11.80;;
15820;SDS011;8011;51.650;7.240;2022-09-12T03:08:29;15.03;;;12.17;;
15820;SDS011;8011;51.650;7.240;2022-09-12T03:24:34;15.37;;;13.07;;
15820;SDS011;8011;51.650;7.240;2022-09-12T03:27:06;20.57;;;13.40;;
15820;SDS011;8011;51.650;7.240;2022-09-12T03:29:40;17.73;;;13.37;;
15820;SDS011;8011;51.650;7.240;2022-09-12T03:32:07;15.80;;;12.60;;
15820;SDS011;8011;51.650;7.240;2022-09-12T03:34:33;15.93;;;12.70;;
15820;SDS011;8011;51.650;7.240;2022-09-12T03:36:59;15.47;;;12.53;;
15820;SDS011;8011;51.650;7.240;2022-09-12T03:39:24;14.03;;;11.80;;
15820;SDS011;8011;51.650;7.240;2022-09-12T03:41:51;18.53;;;12.80;;
15820;SDS011;8011;51.650;7.240;2022-09-12T03:44:17;15.57;;;12.07;;
15820;SDS011;8011;51.650;7.240;2022-09-12T03:46:43;14.57;;;11.73;;
15820;SDS011;8011;51.650;7.240;2022-09-12T03:49:09;17.60;;;13.87;;
15820;SDS011;8011;51.650;7.240;2022-09-12T03:51:36;16.90;;;13.47;;
15820;SDS011;8011;51.650;7.240;2022-09-12T03:54:03;15.13;;;11.93;;
15820;SDS011;8011;51.650;7.240;2022-09-12T03:56:29;23.10;;;14.30;;
15820;SDS011;8011;51.650;7.240;2022-09-12T03:58:54;18.00;;;13.07;;
15820;SDS011;8011;51.650;7.240;2022-09-12T04:01:20;16.47;;;12.70;;
15820;SDS011;8011;51.650;7.240;2022-09-12T04:03:47;17.90;;;12.90;;
15820;SDS011;8011;51.650;7.240;2022-09-12T04:06:15;17.03;;;12.27;;
15820;SDS011;8011;51.650;7.240;2022-09-12T04:08:43;17.40;;;12.63;;
15820;SDS011;8011;51.650;7.240;2022-09-12T04:11:13;14.30;;;11.73;;
15820;SDS011;8011;51.650;7.240;2022-09-12T04:13:40;15.97;;;11.70;;
15820;SDS011;8011;51.650;7.240;2022-09-12T04:16:08;13.90;;;11.60;;
15820;SDS011;8011;51.650;7.240;2022-09-12T04:18:34;15.07;;;11.53;;
15820;SDS011;8011;51.650;7.240;2022-09-12T04:21:07;14.63;;;11.27;;
15820;SDS011;8011;51.650;7.240;2022-09-12T04:23:35;16.77;;;11.93;;
15820;SDS011;8011;51.650;7.240;2022-09-12T04:26:01;13.40;;;11.03;;
15820;SDS011;8011;51.650;7.240;2022-09-12T04:28:30;13.43;;;11.30;;
15820;SDS011;8011;51.650;7.240;2022-09-12T04:31:00;15.00;;;12.27;;
15820;SDS011;8011;51.650;7.240;2022-09-12T04:33:31;13.03;;;11.30;;
15820;SDS011;8011;51.650;7.240;2022-09-12T04:36:07;14.33;;;11.47;;
15820;SDS011;8011;51.650;7.240;2022-09-12T04:38:35;14.73;;;11.60;;
15820;SDS011;8011;51.650;7.240;2022-09-12T04:41:11;13.63;;;11.60;;
15820;SDS011;8011;51.650;7.240;2022-09-12T04:43:43;14.17;;;11.17;;
15820;SDS011;8011;51.650;7.240;2022-09-12T04:46:14;15.20;;;12.33;;
15820;SDS011;8011;51.650;7.240;2022-09-12T04:48:41;16.33;;;11.20;;
15820;SDS011;8011;51.650;7.240;2022-09-12T04:53:38;14.60;;;11.27;;
15820;SDS011;8011;51.650;7.240;2022-09-12T04:56:05;15.53;;;11.80;;
15820;SDS011;8011;51.650;7.240;2022-09-12T04:58:33;13.30;;;10.60;;
15820;SDS011;8011;51.650;7.240;2022-09-12T05:01:06;16.30;;;11.10;;
15820;SDS011;8011;51.650;7.240;2022-09-12T05:03:37;14.83;;;11.63;;
15820;SDS011;8011;51.650;7.240;2022-09-12T05:06:04;14.17;;;11.00;;
15820;SDS011;8011;51.650;7.240;2022-09-12T05:08:32;13.30;;;10.87;;
15820;SDS011;8011;51.650;7.240;2022-09-12T05:11:18;15.23;;;12.03;;
15820;SDS011;8011;51.650;7.240;2022-09-12T05:13:46;15.43;;;12.10;;
15820;SDS011;8011;51.650;7.240;2022-09-12T05:16:12;16.77;;;12.33;;
15820;SDS011;8011;51.650;7.240;2022-09-12T05:18:40;16.57;;;12.33;;
15820;SDS011;8011;51.650;7.240;2022-09-12T05:21:07;16.10;;;12.50;;
15820;SDS011;8011;51.650;7.240;2022-09-12T05:23:35;16.43;;;12.57;;
15820;SDS011;8011;51.650;7.240;2022-09-12T05:26:02;18.77;;;12.33;;
15820;SDS011;8011;51.650;7.240;2022-09-12T05:28:30;15.90;;;11.77;;
15820;SDS011;8011;51.650;7.240;2022-09-12T05:31:01;22.90;;;12.10;;
15820;SDS011;8011;51.650;7.240;2022-09-12T05:33:32;17.07;;;12.07;;
15820;SDS011;8011;51.650;7.240;2022-09-12T05:35:59;15.23;;;12.20;;
15820;SDS011;8011;51.650;7.240;2022-09-12T05:38:26;18.00;;;12.13;;
15820;SDS011;8011;51.650;7.240;2022-09-12T05:41:08;14.53;;;11.13;;
15820;SDS011;8011;51.650;7.240;2022-09-12T05:43:36;16.73;;;12.10;;
15820;SDS011;8011;51.650;7.240;2022-09-12T05:46:03;16.87;;;12.23;;
15820;SDS011;8011;51.650;7.240;2022-09-12T05:48:34;14.30;;;11.27;;
15820;SDS011;8011;51.650;7.240;2022-09-12T05:51:02;15.80;;;11.97;;
15820;SDS011;8011;51.650;7.240;2022-09-12T05:53:31;16.77;;;11.93;;
15820;SDS011;8011;51.650;7.240;2022-09-12T05:56:10;15.27;;;11.90;;
15820;SDS011;8011;51.650;7.240;2022-09-12T05:58:38;15.67;;;11.40;;
15820;SDS011;8011;51.650;7.240;2022-09-12T06:01:07;15.27;;;11.87;;
15820;SDS011;8011;51.650;7.240;2022-09-12T06:06:08;17.70;;;11.30;;
15820;SDS011;8011;51.650;7.240;2022-09-12T06:08:37;16.07;;;11.83;;
15820;SDS011;8011;51.650;7.240;2022-09-12T06:11:04;16.53;;;11.70;;
15820;SDS011;8011;51.650;7.240;2022-09-12T06:13:31;13.83;;;11.33;;
15820;SDS011;8011;51.650;7.240;2022-09-12T06:16:10;18.73;;;12.03;;
15820;SDS011;8011;51.650;7.240;2022-09-12T06:18:37;15.33;;;12.43;;
15820;SDS011;8011;51.650;7.240;2022-09-12T06:21:05;15.00;;;12.03;;
15820;SDS011;8011;51.650;7.240;2022-09-12T06:23:32;13.47;;;11.23;;
15820;SDS011;8011;51.650;7.240;2022-09-12T06:25:58;14.63;;;10.97;;
15820;SDS011;8011;51.650;7.240;2022-09-12T06:28:24;15.50;;;11.03;;
15820;SDS011;8011;51.650;7.240;2022-09-12T06:30:51;15.63;;;11.30;;
15820;SDS011;8011;51.650;7.240;2022-09-12T06:33:17;14.90;;;11.37;;
15820;SDS011;8011;51.650;7.240;2022-09-12T06:35:43;16.07;;;12.07;;
15820;SDS011;8011;51.650;7.240;2022-09-12T06:38:09;20.63;;;12.43;;
15820;SDS011;8011;51.650;7.240;2022-09-12T06:40:40;13.20;;;11.47;;
15820;SDS011;8011;51.650;7.240;2022-09-12T06:43:11;19.17;;;12.10;;
15820;SDS011;8011;51.650;7.240;2022-09-12T06:45:38;17.90;;;12.67;;
15820;SDS011;8011;51.650;7.240;2022-09-12T06:48:04;17.10;;;12.17;;
15820;SDS011;8011;51.650;7.240;2022-09-12T06:50:29;17.20;;;12.30;;
15820;SDS011;8011;51.650;7.240;2022-09-12T06:52:55;19.00;;;12.17;;
15820;SDS011;8011;51.650;7.240;2022-09-12T06:55:21;15.90;;;11.70;;
15820;SDS011;8011;51.650;7.240;2022-09-12T06:57:48;16.70;;;12.20;;
15820;SDS011;8011;51.650;7.240;2022-09-12T07:00:14;19.10;;;12.60;;
15820;SDS011;8011;51.650;7.240;2022-09-12T07:02:40;16.53;;;12.17;;
15820;SDS011;8011;51.650;7.240;2022-09-12T07:05:06;14.07;;;11.30;;
15820;SDS011;8011;51.650;7.240;2022-09-12T07:07:33;13.37;;;10.77;;
15820;SDS011;8011;51.650;7.240;2022-09-12T07:09:59;13.50;;;11.43;;
15820;SDS011;8011;51.650;7.240;2022-09-12T07:12:26;14.57;;;12.30;;
15820;SDS011;8011;51.650;7.240;2022-09-12T07:14:53;17.27;;;11.50;;
15820;SDS011;8011;51.650;7.240;2022-09-12T07:17:20;16.57;;;13.27;;
15820;SDS011;8011;51.650;7.240;2022-09-12T07:19:46;13.10;;;11.43;;
15820;SDS011;8011;51.650;7.240;2022-09-12T07:22:11;14.13;;;11.17;;
15820;SDS011;8011;51.650;7.240;2022-09-12T07:24:37;13.40;;;11.83;;
15820;SDS011;8011;51.650;7.240;2022-09-12T07:27:05;13.63;;;10.57;;
15820;SDS011;8011;51.650;7.240;2022-09-12T07:29:30;12.97;;;10.70;;
15820;SDS011;8011;51.650;7.240;2022-09-12T07:31:56;14.63;;;11.10;;
15820;SDS011;8011;51.650;7.240;2022-09-12T07:34:22;14.77;;;10.77;;
15820;SDS011;8011;51.650;7.240;2022-09-12T07:36:51;13.03;;;11.00;;
15820;SDS011;8011;51.650;7.240;2022-09-12T07:39:16;14.13;;;11.17;;
15820;SDS011;8011;51.650;7.240;2022-09-12T07:41:42;12.73;;;10.33;;
15820;SDS011;8011;51.650;7.240;2022-09-12T07:44:08;13.27;;;10.80;;
15820;SDS011;8011;51.650;7.240;2022-09-12T07:46:33;12.13;;;10.40;;
15820;SDS011;8011;51.650;7.240;2022-09-12T07:48:59;14.80;;;11.20;;
15820;SDS011;8011;51.650;7.240;2022-09-12T07:51:26;17.20;;;11.40;;
15820;SDS011;8011;51.650;7.240;2022-09-12T07:53:53;19.07;;;11.47;;
15820;SDS011;8011;51.650;7.240;2022-09-12T07:56:20;24.20;;;13.23;;
15820;SDS011;8011;51.650;7.240;2022-09-12T07:58:46;14.73;;;10.50;;
15820;SDS011;8011;51.650;7.240;2022-09-12T08:01:13;14.23;;;10.37;;
15820;SDS011;8011;51.650;7.240;2022-09-12T08:03:41;16.27;;;10.90;;
15820;SDS011;8011;51.650;7.240;2022-09-12T08:08:37;12.93;;;11.00;;
15820;SDS011;8011;51.650;7.240;2022-09-12T08:11:05;16.03;;;11.80;;
15820;SDS011;8011;51.650;7.240;2022-09-12T08:13:33;17.23;;;11.57;;
15820;SDS011;8011;51.650;7.240;2022-09-12T08:16:04;17.77;;;11.53;;
15820;SDS011;8011;51.650;7.240;2022-09-12T08:18:31;12.80;;;11.27;;
15820;SDS011;8011;51.650;7.240;2022-09-12T08:20:58;14.23;;;11.57;;
15820;SDS011;8011;51.650;7.240;2022-09-12T08:23:26;16.40;;;11.67;;
15820;SDS011;8011;51.650;7.240;2022-09-12T08:26:02;14.57;;;11.53;;
15820;SDS011;8011;51.650;7.240;2022-09-12T08:28:29;14.63;;;11.20;;
15820;SDS011;8011;51.650;7.240;2022-09-12T08:31:09;14.57;;;11.87;;
15820;SDS011;8011;51.650;7.240;2022-09-12T08:33:38;14.80;;;11.77;;
15820;SDS011;8011;51.650;7.240;2022-09-12T08:36:12;13.50;;;11.40;;
15820;SDS011;8011;51.650;7.240;2022-09-12T08:38:43;14.37;;;11.13;;
15820;SDS011;8011;51.650;7.240;2022-09-12T08:49:24;13.07;;;10.60;;
15820;SDS011;8011;51.650;7.240;2022-09-12T08:51:54;13.67;;;10.57;;
15820;SDS011;8011;51.650;7.240;2022-09-12T08:54:25;12.50;;;10.80;;
15820;SDS011;8011;51.650;7.240;2022-09-12T08:57:03;14.57;;;9.90;;
15820;SDS011;8011;51.650;7.240;2022-09-12T08:59:33;12.77;;;10.07;;
15820;SDS011;8011;51.650;7.240;2022-09-12T09:02:02;13.27;;;10.40;;
15820;SDS011;8011;51.650;7.240;2022-09-12T09:05:10;14.30;;;9.43;;
15820;SDS011;8011;51.650;7.240;2022-09-12T09:08:48;15.07;;;10.13;;
15820;SDS011;8011;51.650;7.240;2022-09-12T09:17:33;11.90;;;10.60;;
15820;SDS011;8011;51.650;7.240;2022-09-12T09:23:00;10.57;;;9.40;;
15820;SDS011;8011;51.650;7.240;2022-09-12T09:28:16;13.07;;;10.63;;
15820;SDS011;8011;51.650;7.240;2022-09-12T09:30:53;13.90;;;9.77;;
15820;SDS011;8011;51.650;7.240;2022-09-12T09:33:21;12.57;;;10.27;;
15820;SDS011;8011;51.650;7.240;2022-09-12T09:35:54;11.73;;;9.60;;
15820;SDS011;8011;51.650;7.240;2022-09-12T09:41:02;14.27;;;10.47;;
15820;SDS011;8011;51.650;7.240;2022-09-12T09:43:54;11.17;;;9.67;;
15820;SDS011;8011;51.650;7.240;2022-09-12T09:46:21;10.83;;;9.43;;
15820;SDS011;8011;51.650;7.240;2022-09-12T09:48:48;11.07;;;9.17;;
15820;SDS011;8011;51.650;7.240;2022-09-12T09:51:20;11.37;;;8.93;;
15820;SDS011;8011;51.650;7.240;2022-09-12T09:53:57;13.27;;;9.07;;
15820;SDS011;8011;51.650;7.240;2022-09-12T09:56:33;10.80;;;8.40;;
15820;SDS011;8011;51.650;7.240;2022-09-12T09:59:10;11.23;;;8.47;;
15820;SDS011;8011;51.650;7.240;2022-09-12T10:01:44;12.10;;;8.57;;
15820;SDS011;8011;51.650;7.240;2022-09-12T10:04:20;10.87;;;8.50;;
15820;SDS011;8011;51.650;7.240;2022-09-12T10:06:50;10.03;;;8.00;;
15820;SDS011;8011;51.650;7.240;2022-09-12T10:09:18;9.00;;;7.37;;
15820;SDS011;8011;51.650;7.240;2022-09-12T10:11:48;9.57;;;7.13;;
15820;SDS011;8011;51.650;7.240;2022-09-12T10:14:35;9.67;;;7.70;;
15820;SDS011;8011;51.650;7.240;2022-09-12T10:19:49;11.47;;;8.03;;
15820;SDS011;8011;51.650;7.240;2022-09-12T10:22:17;8.33;;;7.43;;
15820;SDS011;8011;51.650;7.240;2022-09-12T10:24:51;10.13;;;7.43;;
15820;SDS011;8011;51.650;7.240;2022-09-12T10:29:54;7.77;;;6.73;;
15820;SDS011;8011;51.650;7.240;2022-09-12T10:32:32;8.00;;;7.17;;
15820;SDS011;8011;51.650;7.240;2022-09-12T10:35:06;7.40;;;6.07;;
15820;SDS011;8011;51.650;7.240;2022-09-12T10:37:41;10.13;;;7.20;;
15820;SDS011;8011;51.650;7.240;2022-09-12T10:40:33;7.50;;;6.33;;
15820;SDS011;8011;51.650;7.240;2022-09-12T10:43:14;6.63;;;5.93;;
15820;SDS011;8011;51.650;7.240;2022-09-12T10:45:44;5.90;;;5.20;;
15820;SDS011;8011;51.650;7.240;2022-09-12T10:48:29;6.70;;;6.00;;
15820;SDS011;8011;51.650;7.240;2022-09-12T10:50:59;6.30;;;5.70;;
15820;SDS011;8011;51.650;7.240;2022-09-12T10:53:31;6.90;;;4.03;;
15820;SDS011;8011;51.650;7.240;2022-09-12T11:03:46;4.50;;;4.10;;
15820;SDS011;8011;51.650;7.240;2022-09-12T11:06:15;5.23;;;4.20;;
15820;SDS011;8011;51.650;7.240;2022-09-12T11:09:02;5.10;;;3.10;;
15820;SDS011;8011;51.650;7.240;2022-09-12T11:11:53;4.70;;;2.90;;
15820;SDS011;8011;51.650;7.240;2022-09-12T11:15:10;3.93;;;2.83;;
15820;SDS011;8011;51.650;7.240;2022-09-12T11:23:34;3.23;;;2.87;;
15820;SDS011;8011;51.650;7.240;2022-09-12T11:34:33;3.50;;;2.57;;
15820;SDS011;8011;51.650;7.240;2022-09-12T11:37:38;3.10;;;2.80;;
15820;SDS011;8011;51.650;7.240;2022-09-12T11:40:36;2.80;;;2.60;;
15820;SDS011;8011;51.650;7.240;2022-09-12T11:43:15;3.07;;;2.77;;
15820;SDS011;8011;51.650;7.240;2022-09-12T11:45:44;5.83;;;3.67;;
15820;SDS011;8011;51.650;7.240;2022-09-12T11:48:13;3.50;;;2.67;;
15820;SDS011;8011;51.650;7.240;2022-09-12T11:50:51;2.67;;;2.47;;
15820;SDS011;8011;51.650;7.240;2022-09-12T11:53:18;2.30;;;2.10;;
15820;SDS011;8011;51.650;7.240;2022-09-12T11:55:58;3.37;;;2.03;;
15820;SDS011;8011;51.650;7.240;2022-09-12T11:58:28;2.60;;;2.40;;
15820;SDS011;8011;51.650;7.240;2022-09-12T12:00:55;3.40;;;2.30;;
15820;SDS011;8011;51.650;7.240;2022-09-12T12:03:30;2.93;;;2.73;;
15820;SDS011;8011;51.650;7.240;2022-09-12T12:08:39;2.30;;;2.10;;
15820;SDS011;8011;51.650;7.240;2022-09-12T12:11:10;3.03;;;1.90;;
15820;SDS011;8011;51.650;7.240;2022-09-12T12:13:52;3.80;;;2.20;;
15820;SDS011;8011;51.650;7.240;2022-09-12T12:16:27;2.10;;;1.97;;
15820;SDS011;8011;51.650;7.240;2022-09-12T12:24:29;2.30;;;2.10;;
15820;SDS011;8011;51.650;7.240;2022-09-12T12:26:59;2.20;;;2.00;;
15820;SDS011;8011;51.650;7.240;2022-09-12T12:44:59;2.83;;;2.60;;
15820;SDS011;8011;51.650;7.240;2022-09-12T12:47:26;2.47;;;2.23;;
15820;SDS011;8011;51.650;7.240;2022-09-12T12:52:50;2.30;;;1.97;;
15820;SDS011;8011;51.650;7.240;2022-09-12T12:55:37;2.03;;;1.93;;
15820;SDS011;8011;51.650;7.240;2022-09-12T12:58:06;1.80;;;1.70;;
15820;SDS011;8011;51.650;7.240;2022-09-12T13:00:47;2.83;;;1.90;;
15820;SDS011;8011;51.650;7.240;2022-09-12T13:03:44;1.90;;;1.80;;
15820;SDS011;8011;51.650;7.240;2022-09-12T13:06:32;2.00;;;1.90;;
15820;SDS011;8011;51.650;7.240;2022-09-12T13:09:08;2.13;;;2.00;;
15820;SDS011;8011;51.650;7.240;2022-09-12T13:11:38;2.07;;;1.87;;
15820;SDS011;8011;51.650;7.240;2022-09-12T13:14:06;3.07;;;1.83;;
15820;SDS011;8011;51.650;7.240;2022-09-12T13:16:59;2.60;;;1.67;;
15820;SDS011;8011;51.650;7.240;2022-09-12T13:19:30;1.80;;;1.70;;
15820;SDS011;8011;51.650;7.240;2022-09-12T13:22:02;2.20;;;2.00;;
15820;SDS011;8011;51.650;7.240;2022-09-12T13:24:34;5.50;;;2.07;;
15820;SDS011;8011;51.650;7.240;2022-09-12T13:27:21;2.20;;;1.90;;
15820;SDS011;8011;51.650;7.240;2022-09-12T13:29:56;3.13;;;2.40;;
15820;SDS011;8011;51.650;7.240;2022-09-12T13:32:33;3.40;;;2.30;;
15820;SDS011;8011;51.650;7.240;2022-09-12T13:35:05;2.90;;;2.60;;
15820;SDS011;8011;51.650;7.240;2022-09-12T13:38:11;2.37;;;2.00;;
15820;SDS011;8011;51.650;7.240;2022-09-12T13:40:55;2.30;;;2.10;;
15820;SDS011;8011;51.650;7.240;2022-09-12T13:43:45;2.20;;;1.80;;
15820;SDS011;8011;51.650;7.240;2022-09-12T13:46:13;2.93;;;2.20;;
15820;SDS011;8011;51.650;7.240;2022-09-12T13:48:47;3.95;;;1.95;;
15820;SDS011;8011;51.650;7.240;2022-09-12T13:51:18;4.27;;;2.40;;
15820;SDS011;8011;51.650;7.240;2022-09-12T13:53:51;2.17;;;1.93;;
15820;SDS011;8011;51.650;7.240;2022-09-12T13:56:20;2.67;;;1.90;;
15820;SDS011;8011;51.650;7.240;2022-09-12T13:58:50;3.13;;;2.03;;
15820;SDS011;8011;51.650;7.240;2022-09-12T14:01:21;3.20;;;2.00;;
15820;SDS011;8011;51.650;7.240;2022-09-12T14:03:55;1.97;;;1.77;;
15820;SDS011;8011;51.650;7.240;2022-09-12T14:09:36;2.20;;;2.00;;
15820;SDS011;8011;51.650;7.240;2022-09-12T14:12:02;2.23;;;2.10;;
15820;SDS011;8011;51.650;7.240;2022-09-12T14:14:33;5.77;;;2.30;;
15820;SDS011;8011;51.650;7.240;2022-09-12T14:17:17;2.47;;;2.27;;
15820;SDS011;8011;51.650;7.240;2022-09-12T14:19:53;2.27;;;2.10;;
15820;SDS011;8011;51.650;7.240;2022-09-12T14:22:23;2.27;;;2.00;;
15820;SDS011;8011;51.650;7.240;2022-09-12T14:24:51;2.27;;;2.07;;
15820;SDS011;8011;51.650;7.240;2022-09-12T14:27:19;2.20;;;2.10;;
15820;SDS011;8011;51.650;7.240;2022-09-12T14:29:52;2.27;;;1.97;;
15820;SDS011;8011;51.650;7.240;2022-09-12T14:32:32;2.50;;;2.00;;
15820;SDS011;8011;51.650;7.240;2022-09-12T14:35:03;3.50;;;2.07;;
15820;SDS011;8011;51.650;7.240;2022-09-12T14:37:42;3.00;;;2.15;;
15820;SDS011;8011;51.650;7.240;2022-09-12T14:40:19;2.27;;;1.97;;
15820;SDS011;8011;51.650;7.240;2022-09-12T14:42:47;2.50;;;2.30;;
15820;SDS011;8011;51.650;7.240;2022-09-12T14:47:56;2.20;;;1.87;;
15820;SDS011;8011;51.650;7.240;2022-09-12T14:53:04;2.00;;;1.53;;
15820;SDS011;8011;51.650;7.240;2022-09-12T14:55:33;2.00;;;1.80;;
15820;SDS011;8011;51.650;7.240;2022-09-12T15:06:19;1.73;;;1.63;;
15820;SDS011;8011;51.650;7.240;2022-09-12T15:08:54;2.23;;;1.80;;
15820;SDS011;8011;51.650;7.240;2022-09-12T15:11:22;2.20;;;2.00;;
15820;SDS011;8011;51.650;7.240;2022-09-12T15:13:48;2.35;;;1.98;;
15820;SDS011;8011;51.650;7.240;2022-09-12T15:16:14;2.77;;;2.00;;
15820;SDS011;8011;51.650;7.240;2022-09-12T15:18:40;1.90;;;1.80;;
15820;SDS011;8011;51.650;7.240;2022-09-12T15:21:07;2.00;;;1.90;;
15820;SDS011;8011;51.650;7.240;2022-09-12T15:26:12;2.53;;;1.83;;
15820;SDS011;8011;51.650;7.240;2022-09-12T15:28:42;2.05;;;1.80;;
15820;SDS011;8011;51.650;7.240;2022-09-12T15:31:28;2.57;;;1.90;;
15820;SDS011;8011;51.650;7.240;2022-09-12T15:33:55;2.90;;;1.60;;
15820;SDS011;8011;51.650;7.240;2022-09-12T15:36:24;2.05;;;1.95;;
15820;SDS011;8011;51.650;7.240;2022-09-12T15:38:52;2.07;;;1.97;;
15820;SDS011;8011;51.650;7.240;2022-09-12T15:41:19;2.63;;;2.40;;
15820;SDS011;8011;51.650;7.240;2022-09-12T15:43:47;2.30;;;2.10;;
15820;SDS011;8011;51.650;7.240;2022-09-12T15:46:14;2.10;;;1.90;;
15820;SDS011;8011;51.650;7.240;2022-09-12T15:48:41;2.07;;;1.90;;
15820;SDS011;8011;51.650;7.240;2022-09-12T15:51:11;2.60;;;2.10;;
15820;SDS011;8011;51.650;7.240;2022-09-12T15:53:42;2.37;;;2.17;;
15820;SDS011;8011;51.650;7.240;2022-09-12T15:56:08;1.90;;;1.80;;
15820;SDS011;8011;51.650;7.240;2022-09-12T15:58:35;2.17;;;2.00;;
15820;SDS011;8011;51.650;7.240;2022-09-12T16:01:01;2.60;;;1.90;;
15820;SDS011;8011;51.650;7.240;2022-09-12T16:03:28;3.30;;;1.80;;
15820;SDS011;8011;51.650;7.240;2022-09-12T16:05:55;3.42;;;2.03;;
15820;SDS011;8011;51.650;7.240;2022-09-12T16:08:22;1.90;;;1.67;;
15820;SDS011;8011;51.650;7.240;2022-09-12T16:10:58;2.20;;;2.00;;
15820;SDS011;8011;51.650;7.240;2022-09-12T16:13:27;2.40;;;2.20;;
15820;SDS011;8011;51.650;7.240;2022-09-12T16:15:55;2.10;;;1.90;;
15820;SDS011;8011;51.650;7.240;2022-09-12T16:18:21;1.87;;;1.67;;
15820;SDS011;8011;51.650;7.240;2022-09-12T16:20:50;2.17;;;1.97;;
15820;SDS011;8011;51.650;7.240;2022-09-12T16:23:20;2.60;;;2.17;;
15820;SDS011;8011;51.650;7.240;2022-09-12T16:25:54;2.17;;;1.85;;
15820;SDS011;8011;51.650;7.240;2022-09-12T16:28:22;2.10;;;1.93;;
15820;SDS011;8011;51.650;7.240;2022-09-12T16:30:58;2.22;;;2.03;;
15820;SDS011;8011;51.650;7.240;2022-09-12T16:33:25;2.20;;;2.00;;
15820;SDS011;8011;51.650;7.240;2022-09-12T16:35:52;2.20;;;2.00;;
15820;SDS011;8011;51.650;7.240;2022-09-12T16:38:25;2.27;;;2.07;;
15820;SDS011;8011;51.650;7.240;2022-09-12T16:40:50;2.25;;;2.13;;
15820;SDS011;8011;51.650;7.240;2022-09-12T16:43:16;3.40;;;2.28;;
15820;SDS011;8011;51.650;7.240;2022-09-12T16:45:45;2.60;;;2.40;;
15820;SDS011;8011;51.650;7.240;2022-09-12T16:48:10;3.67;;;2.60;;
15820;SDS011;8011;51.650;7.240;2022-09-12T16:50:36;2.70;;;2.20;;
15820;SDS011;8011;51.650;7.240;2022-09-12T16:53:02;4.83;;;2.30;;
15820;SDS011;8011;51.650;7.240;2022-09-12T16:55:28;2.50;;;2.30;;
15820;SDS011;8011;51.650;7.240;2022-09-12T16:57:54;2.53;;;2.33;;
15820;SDS011;8011;51.650;7.240;2022-09-12T17:00:20;4.37;;;2.40;;
15820;SDS011;8011;51.650;7.240;2022-09-12T17:02:46;3.00;;;2.10;;
15820;SDS011;8011;51.650;7.240;2022-09-12T17:05:12;2.73;;;1.90;;
15820;SDS011;8011;51.650;7.240;2022-09-12T17:07:39;3.33;;;2.30;;
15820;SDS011;8011;51.650;7.240;2022-09-12T17:10:06;2.70;;;2.50;;
15820;SDS011;8011;51.650;7.240;2022-09-12T17:12:32;2.87;;;1.90;;
15820;SDS011;8011;51.650;7.240;2022-09-12T17:14:58;2.67;;;2.23;;
15820;SDS011;8011;51.650;7.240;2022-09-12T17:17:27;1.90;;;1.80;;
15820;SDS011;8011;51.650;7.240;2022-09-12T17:19:53;2.40;;;2.20;;
15820;SDS011;8011;51.650;7.240;2022-09-12T17:22:18;3.17;;;2.00;;
15820;SDS011;8011;51.650;7.240;2022-09-12T17:24:47;2.07;;;1.97;;
15820;SDS011;8011;51.650;7.240;2022-09-12T17:27:12;2.40;;;1.93;;
15820;SDS011;8011;51.650;7.240;2022-09-12T17:29:38;2.10;;;1.90;;
15820;SDS011;8011;51.650;7.240;2022-09-12T17:32:07;3.43;;;2.20;;
15820;SDS011;8011;51.650;7.240;2022-09-12T17:34:35;2.27;;;2.07;;
15820;SDS011;8011;51.650;7.240;2022-09-12T17:37:01;1.90;;;1.70;;
15820;SDS011;8011;51.650;7.240;2022-09-12T17:39:27;2.30;;;1.97;;
15820;SDS011;8011;51.650;7.240;2022-09-12T17:41:52;2.33;;;2.10;;
15820;SDS011;8011;51.650;7.240;2022-09-12T17:44:21;2.40;;;2.20;;
15820;SDS011;8011;51.650;7.240;2022-09-12T17:46:48;2.73;;;2.13;;
15820;SDS011;8011;51.650;7.240;2022-09-12T17:49:14;2.43;;;2.20;;
15820;SDS011;8011;51.650;7.240;2022-09-12T17:51:42;2.47;;;2.00;;
15820;SDS011;8011;51.650;7.240;2022-09-12T17:54:12;2.10;;;1.90;;
15820;SDS011;8011;51.650;7.240;2022-09-12T17:56:40;2.27;;;1.90;;
15820;SDS011;8011;51.650;7.240;2022-09-12T17:59:08;2.77;;;2.10;;
15820;SDS011;8011;51.650;7.240;2022-09-12T18:01:37;4.93;;;2.20;;
15820;SDS011;8011;51.650;7.240;2022-09-12T18:04:21;2.60;;;2.40;;
15820;SDS011;8011;51.650;7.240;2022-09-12T18:06:47;2.73;;;2.37;;
15820;SDS011;8011;51.650;7.240;2022-09-12T18:09:17;2.87;;;2.53;;
15820;SDS011;8011;51.650;7.240;2022-09-12T18:11:49;3.47;;;2.50;;
15820;SDS011;8011;51.650;7.240;2022-09-12T18:14:15;2.63;;;2.43;;
15820;SDS011;8011;51.650;7.240;2022-09-12T18:16:41;3.90;;;2.70;;
15820;SDS011;8011;51.650;7.240;2022-09-12T18:19:08;2.90;;;2.70;;
15820;SDS011;8011;51.650;7.240;2022-09-12T18:21:35;3.57;;;2.40;;
15820;SDS011;8011;51.650;7.240;2022-09-12T18:24:01;3.10;;;2.37;;
15820;SDS011;8011;51.650;7.240;2022-09-12T18:26:27;2.77;;;2.40;;
15820;SDS011;8011;51.650;7.240;2022-09-12T18:28:54;3.83;;;2.90;;
15820;SDS011;8011;51.650;7.240;2022-09-12T18:31:21;3.77;;;2.73;;
15820;SDS011;8011;51.650;7.240;2022-09-12T18:33:48;3.43;;;3.13;;
15820;SDS011;8011;51.650;7.240;2022-09-12T18:36:14;3.40;;;2.90;;
15820;SDS011;8011;51.650;7.240;2022-09-12T18:38:42;2.97;;;2.73;;
15820;SDS011;8011;51.650;7.240;2022-09-12T18:41:16;3.20;;;2.60;;
15820;SDS011;8011;51.650;7.240;2022-09-12T18:43:44;3.43;;;2.80;;
15820;SDS011;8011;51.650;7.240;2022-09-12T18:46:14;3.50;;;3.20;;
15820;SDS011;8011;51.650;7.240;2022-09-12T18:48:41;3.80;;;2.97;;
15820;SDS011;8011;51.650;7.240;2022-09-12T18:51:14;3.10;;;2.80;;
15820;SDS011;8011;51.650;7.240;2022-09-12T18:53:53;2.90;;;2.70;;
15820;SDS011;8011;51.650;7.240;2022-09-12T18:56:22;3.30;;;3.00;;
15820;SDS011;8011;51.650;7.240;2022-09-12T18:58:50;3.43;;;2.80;;
15820;SDS011;8011;51.650;7.240;2022-09-12T19:01:18;4.30;;;3.00;;
15820;SDS011;8011;51.650;7.240;2022-09-12T19:03:46;3.70;;;2.90;;
15820;SDS011;8011;51.650;7.240;2022-09-12T19:06:13;3.53;;;2.90;;
15820;SDS011;8011;51.650;7.240;2022-09-12T19:08:43;2.80;;;2.60;;
15820;SDS011;8011;51.650;7.240;2022-09-12T19:11:09;3.10;;;2.73;;
15820;SDS011;8011;51.650;7.240;2022-09-12T19:13:36;5.10;;;3.43;;
15820;SDS011;8011;51.650;7.240;2022-09-12T19:16:05;3.37;;;2.90;;
15820;SDS011;8011;51.650;7.240;2022-09-12T19:18:35;3.30;;;3.10;;
15820;SDS011;8011;51.650;7.240;2022-09-12T19:21:06;3.13;;;2.83;;
15820;SDS011;8011;51.650;7.240;2022-09-12T19:23:36;3.13;;;2.83;;
15820;SDS011;8011;51.650;7.240;2022-09-12T19:26:03;3.57;;;3.20;;
15820;SDS011;8011;51.650;7.240;2022-09-12T19:28:30;4.20;;;3.10;;
15820;SDS011;8011;51.650;7.240;2022-09-12T19:30:56;3.53;;;3.20;;
15820;SDS011;8011;51.650;7.240;2022-09-12T19:33:21;2.97;;;2.77;;
15820;SDS011;8011;51.650;7.240;2022-09-12T19:35:48;4.20;;;3.13;;
15820;SDS011;8011;51.650;7.240;2022-09-12T19:38:15;3.70;;;3.10;;
15820;SDS011;8011;51.650;7.240;2022-09-12T19:40:41;3.30;;;3.00;;
15820;SDS011;8011;51.650;7.240;2022-09-12T19:43:07;3.30;;;2.97;;
15820;SDS011;8011;51.650;7.240;2022-09-12T19:45:33;3.63;;;3.23;;
15820;SDS011;8011;51.650;7.240;2022-09-12T19:47:59;3.60;;;3.20;;
15820;SDS011;8011;51.650;7.240;2022-09-12T19:50:26;3.43;;;3.17;;
15820;SDS011;8011;51.650;7.240;2022-09-12T19:52:52;3.47;;;3.17;;
15820;SDS011;8011;51.650;7.240;2022-09-12T19:55:17;3.13;;;2.93;;
15820;SDS011;8011;51.650;7.240;2022-09-12T19:57:43;3.47;;;3.23;;
15820;SDS011;8011;51.650;7.240;2022-09-12T20:00:09;4.07;;;3.30;;
15820;SDS011;8011;51.650;7.240;2022-09-12T20:02:35;3.20;;;2.73;;
15820;SDS011;8011;51.650;7.240;2022-09-12T20:05:01;3.37;;;3.10;;
15820;SDS011;8011;51.650;7.240;2022-09-12T20:07:27;3.30;;;3.00;;
15820;SDS011;8011;51.650;7.240;2022-09-12T20:09:53;3.77;;;3.33;;